sensor_id;sensor_type;location;lat;lon;timestamp;P1;durP1;ratioP1;P2;durP2;ratioP2
13720;SDS011;6932;51.438;5.470;2024-01-06T00:01:49;15.13;;;10.03;;
13720;SDS011;6932;51.438;5.470;2024-01-06T00:04:15;14.93;;;10.07;;
13720;SDS011;6932;51.438;5.470;2024-01-06T00:06:40;15.07;;;10.50;;
13720;SDS011;6932;51.438;5.470;2024-01-06T00:09:06;15.03;;;10.23;;
13720;SDS011;6932;51.438;5.470;2024-01-06T00:11:32;15.33;;;10.30;;
13720;SDS011;6932;51.438;5.470;2024-01-06T00:13:58;15.07;;;9.97;;
13720;SDS011;6932;51.438;5.470;2024-01-06T00:16:23;13.70;;;9.43;;
13720;SDS011;6932;51.438;5.470;2024-01-06T00:18:49;15.30;;;10.00;;
13720;SDS011;6932;51.438;5.470;2024-01-06T00:21:15;15.20;;;9.73;;
13720;SDS011;6932;51.438;5.470;2024-01-06T00:23:41;13.57;;;9.63;;
13720;SDS011;6932;51.438;5.470;2024-01-06T00:26:07;13.33;;;8.87;;
13720;SDS011;6932;51.438;5.470;2024-01-06T00:28:34;12.63;;;8.80;;
13720;SDS011;6932;51.438;5.470;2024-01-06T00:31:00;12.97;;;8.80;;
13720;SDS011;6932;51.438;5.470;2024-01-06T00:33:26;13.77;;;9.20;;
13720;SDS011;6932;51.438;5.470;2024-01-06T00:35:51;12.87;;;9.07;;
13720;SDS011;6932;51.438;5.470;2024-01-06T00:38:17;13.67;;;9.10;;
13720;SDS011;6932;51.438;5.470;2024-01-06T00:40:43;13.73;;;8.90;;
13720;SDS011;6932;51.438;5.470;2024-01-06T00:43:09;12.70;;;8.83;;
13720;SDS011;6932;51.438;5.470;2024-01-06T00:45:35;13.03;;;8.17;;
13720;SDS011;6932;51.438;5.470;2024-01-06T00:48:00;12.83;;;8.33;;
13720;SDS011;6932;51.438;5.470;2024-01-06T00:50:26;13.00;;;8.33;;
13720;SDS011;6932;51.438;5.470;2024-01-06T00:52:52;12.17;;;8.00;;
13720;SDS011;6932;51.438;5.470;2024-01-06T00:55:18;12.20;;;8.03;;
13720;SDS011;6932;51.438;5.470;2024-01-06T00:57:45;13.17;;;8.50;;
13720;SDS011;6932;51.438;5.470;2024-01-06T01:00:11;12.67;;;8.43;;
13720;SDS011;6932;51.438;5.470;2024-01-06T01:02:38;13.67;;;8.97;;
13720;SDS011;6932;51.438;5.470;2024-01-06T01:05:03;14.07;;;9.47;;
13720;SDS011;6932;51.438;5.470;2024-01-06T01:07:30;15.30;;;10.03;;
13720;SDS011;6932;51.438;5.470;2024-01-06T01:09:55;15.03;;;10.07;;
13720;SDS011;6932;51.438;5.470;2024-01-06T01:12:22;15.03;;;9.90;;
13720;SDS011;6932;51.438;5.470;2024-01-06T01:14:49;14.87;;;10.00;;
13720;SDS011;6932;51.438;5.470;2024-01-06T01:17:16;15.20;;;10.00;;
13720;SDS011;6932;51.438;5.470;2024-01-06T01:19:41;15.13;;;10.43;;
13720;SDS011;6932;51.438;5.470;2024-01-06T01:22:07;15.33;;;10.13;;
13720;SDS011;6932;51.438;5.470;2024-01-06T01:24:33;14.60;;;9.80;;
13720;SDS011;6932;51.438;5.470;2024-01-06T01:26:59;14.50;;;9.87;;
13720;SDS011;6932;51.438;5.470;2024-01-06T01:29:25;14.83;;;9.60;;
13720;SDS011;6932;51.438;5.470;2024-01-06T01:31:50;14.33;;;9.17;;
13720;SDS011;6932;51.438;5.470;2024-01-06T01:34:16;14.93;;;9.60;;
13720;SDS011;6932;51.438;5.470;2024-01-06T01:36:42;14.73;;;9.73;;
13720;SDS011;6932;51.438;5.470;2024-01-06T01:39:08;13.93;;;8.93;;
13720;SDS011;6932;51.438;5.470;2024-01-06T01:41:34;14.63;;;9.60;;
13720;SDS011;6932;51.438;5.470;2024-01-06T01:44:00;15.33;;;9.67;;
13720;SDS011;6932;51.438;5.470;2024-01-06T01:46:27;14.83;;;10.00;;
13720;SDS011;6932;51.438;5.470;2024-01-06T01:48:57;14.60;;;9.60;;
13720;SDS011;6932;51.438;5.470;2024-01-06T01:51:31;14.33;;;9.30;;
13720;SDS011;6932;51.438;5.470;2024-01-06T01:54:03;15.30;;;9.53;;
13720;SDS011;6932;51.438;5.470;2024-01-06T01:56:32;14.90;;;9.67;;
13720;SDS011;6932;51.438;5.470;2024-01-06T01:59:01;14.60;;;9.73;;
13720;SDS011;6932;51.438;5.470;2024-01-06T02:01:37;15.03;;;9.93;;
13720;SDS011;6932;51.438;5.470;2024-01-06T02:04:06;14.77;;;9.50;;
13720;SDS011;6932;51.438;5.470;2024-01-06T02:06:33;14.63;;;9.47;;
13720;SDS011;6932;51.438;5.470;2024-01-06T02:08:58;14.40;;;9.70;;
13720;SDS011;6932;51.438;5.470;2024-01-06T02:11:24;13.67;;;9.07;;
13720;SDS011;6932;51.438;5.470;2024-01-06T02:13:50;14.57;;;9.40;;
13720;SDS011;6932;51.438;5.470;2024-01-06T02:16:16;14.13;;;9.40;;
13720;SDS011;6932;51.438;5.470;2024-01-06T02:18:41;14.20;;;9.53;;
13720;SDS011;6932;51.438;5.470;2024-01-06T02:21:07;14.13;;;9.37;;
13720;SDS011;6932;51.438;5.470;2024-01-06T02:23:35;15.53;;;10.30;;
13720;SDS011;6932;51.438;5.470;2024-01-06T02:26:02;15.60;;;9.87;;
13720;SDS011;6932;51.438;5.470;2024-01-06T02:28:28;14.13;;;9.57;;
13720;SDS011;6932;51.438;5.470;2024-01-06T02:30:54;14.73;;;9.73;;
13720;SDS011;6932;51.438;5.470;2024-01-06T02:33:19;13.97;;;9.10;;
13720;SDS011;6932;51.438;5.470;2024-01-06T02:35:46;13.93;;;9.30;;
13720;SDS011;6932;51.438;5.470;2024-01-06T02:38:11;14.03;;;9.20;;
13720;SDS011;6932;51.438;5.470;2024-01-06T02:40:37;13.10;;;8.27;;
13720;SDS011;6932;51.438;5.470;2024-01-06T02:43:03;13.10;;;8.70;;
13720;SDS011;6932;51.438;5.470;2024-01-06T02:45:29;13.10;;;8.10;;
13720;SDS011;6932;51.438;5.470;2024-01-06T02:47:55;12.10;;;7.77;;
13720;SDS011;6932;51.438;5.470;2024-01-06T02:50:21;11.13;;;7.40;;
13720;SDS011;6932;51.438;5.470;2024-01-06T02:52:47;11.57;;;7.57;;
13720;SDS011;6932;51.438;5.470;2024-01-06T02:55:13;11.43;;;6.90;;
13720;SDS011;6932;51.438;5.470;2024-01-06T02:57:39;12.57;;;7.00;;
13720;SDS011;6932;51.438;5.470;2024-01-06T03:00:06;10.00;;;6.40;;
13720;SDS011;6932;51.438;5.470;2024-01-06T03:02:33;10.53;;;6.80;;
13720;SDS011;6932;51.438;5.470;2024-01-06T03:05:00;10.47;;;6.40;;
13720;SDS011;6932;51.438;5.470;2024-01-06T03:07:27;9.50;;;6.27;;
13720;SDS011;6932;51.438;5.470;2024-01-06T03:09:53;10.40;;;6.00;;
13720;SDS011;6932;51.438;5.470;2024-01-06T03:12:18;9.77;;;6.17;;
13720;SDS011;6932;51.438;5.470;2024-01-06T03:14:44;9.43;;;5.90;;
13720;SDS011;6932;51.438;5.470;2024-01-06T03:17:10;9.87;;;6.03;;
13720;SDS011;6932;51.438;5.470;2024-01-06T03:19:36;9.57;;;6.10;;
13720;SDS011;6932;51.438;5.470;2024-01-06T03:22:02;10.80;;;6.37;;
13720;SDS011;6932;51.438;5.470;2024-01-06T03:24:28;9.77;;;6.17;;
13720;SDS011;6932;51.438;5.470;2024-01-06T03:26:53;9.73;;;6.13;;
13720;SDS011;6932;51.438;5.470;2024-01-06T03:29:19;9.00;;;6.00;;
13720;SDS011;6932;51.438;5.470;2024-01-06T03:31:45;10.40;;;6.17;;
13720;SDS011;6932;51.438;5.470;2024-01-06T03:34:11;9.67;;;6.13;;
13720;SDS011;6932;51.438;5.470;2024-01-06T03:36:37;10.87;;;6.30;;
13720;SDS011;6932;51.438;5.470;2024-01-06T03:39:07;10.23;;;6.20;;
13720;SDS011;6932;51.438;5.470;2024-01-06T03:41:33;10.83;;;6.33;;
13720;SDS011;6932;51.438;5.470;2024-01-06T03:43:59;10.13;;;6.47;;
13720;SDS011;6932;51.438;5.470;2024-01-06T03:46:24;10.77;;;6.20;;
13720;SDS011;6932;51.438;5.470;2024-01-06T03:48:50;10.07;;;5.77;;
13720;SDS011;6932;51.438;5.470;2024-01-06T03:51:16;9.63;;;6.07;;
13720;SDS011;6932;51.438;5.470;2024-01-06T03:53:42;11.50;;;6.00;;
13720;SDS011;6932;51.438;5.470;2024-01-06T03:56:08;9.90;;;5.97;;
13720;SDS011;6932;51.438;5.470;2024-01-06T03:58:34;8.00;;;5.13;;
13720;SDS011;6932;51.438;5.470;2024-01-06T04:01:00;8.50;;;5.17;;
13720;SDS011;6932;51.438;5.470;2024-01-06T04:03:26;7.90;;;5.00;;
13720;SDS011;6932;51.438;5.470;2024-01-06T04:05:52;7.53;;;4.93;;
13720;SDS011;6932;51.438;5.470;2024-01-06T04:08:18;6.70;;;4.30;;
13720;SDS011;6932;51.438;5.470;2024-01-06T04:10:44;7.87;;;4.80;;
13720;SDS011;6932;51.438;5.470;2024-01-06T04:13:10;7.60;;;4.60;;
13720;SDS011;6932;51.438;5.470;2024-01-06T04:15:37;6.50;;;4.33;;
13720;SDS011;6932;51.438;5.470;2024-01-06T04:18:03;6.20;;;4.30;;
13720;SDS011;6932;51.438;5.470;2024-01-06T04:20:30;6.83;;;4.30;;
13720;SDS011;6932;51.438;5.470;2024-01-06T04:22:57;6.63;;;4.40;;
13720;SDS011;6932;51.438;5.470;2024-01-06T04:25:23;6.90;;;4.57;;
13720;SDS011;6932;51.438;5.470;2024-01-06T04:27:49;8.57;;;4.60;;
13720;SDS011;6932;51.438;5.470;2024-01-06T04:30:15;6.70;;;4.60;;
13720;SDS011;6932;51.438;5.470;2024-01-06T04:32:41;6.27;;;4.47;;
13720;SDS011;6932;51.438;5.470;2024-01-06T04:35:08;8.13;;;5.13;;
13720;SDS011;6932;51.438;5.470;2024-01-06T04:37:35;7.33;;;4.83;;
13720;SDS011;6932;51.438;5.470;2024-01-06T04:40:01;8.00;;;5.10;;
13720;SDS011;6932;51.438;5.470;2024-01-06T04:42:27;7.90;;;5.03;;
13720;SDS011;6932;51.438;5.470;2024-01-06T04:44:53;7.53;;;5.00;;
13720;SDS011;6932;51.438;5.470;2024-01-06T04:47:19;6.53;;;4.53;;
13720;SDS011;6932;51.438;5.470;2024-01-06T04:49:44;7.90;;;5.20;;
13720;SDS011;6932;51.438;5.470;2024-01-06T04:52:10;8.60;;;5.03;;
13720;SDS011;6932;51.438;5.470;2024-01-06T04:54:36;7.90;;;5.20;;
13720;SDS011;6932;51.438;5.470;2024-01-06T04:57:02;7.97;;;5.20;;
13720;SDS011;6932;51.438;5.470;2024-01-06T04:59:29;8.10;;;4.90;;
13720;SDS011;6932;51.438;5.470;2024-01-06T05:01:56;7.70;;;4.90;;
13720;SDS011;6932;51.438;5.470;2024-01-06T05:04:23;7.73;;;4.80;;
13720;SDS011;6932;51.438;5.470;2024-01-06T05:06:49;7.27;;;4.43;;
13720;SDS011;6932;51.438;5.470;2024-01-06T05:09:19;8.17;;;4.47;;
13720;SDS011;6932;51.438;5.470;2024-01-06T05:11:45;9.07;;;5.13;;
13720;SDS011;6932;51.438;5.470;2024-01-06T05:14:11;5.93;;;3.83;;
13720;SDS011;6932;51.438;5.470;2024-01-06T05:16:37;7.20;;;4.60;;
13720;SDS011;6932;51.438;5.470;2024-01-06T05:19:02;7.57;;;4.83;;
13720;SDS011;6932;51.438;5.470;2024-01-06T05:21:29;7.60;;;4.83;;
13720;SDS011;6932;51.438;5.470;2024-01-06T05:23:55;5.70;;;3.87;;
13720;SDS011;6932;51.438;5.470;2024-01-06T05:26:21;5.53;;;3.87;;
13720;SDS011;6932;51.438;5.470;2024-01-06T05:28:46;6.30;;;4.27;;
13720;SDS011;6932;51.438;5.470;2024-01-06T05:31:12;6.90;;;4.30;;
13720;SDS011;6932;51.438;5.470;2024-01-06T05:33:38;6.43;;;4.27;;
13720;SDS011;6932;51.438;5.470;2024-01-06T05:36:04;6.83;;;4.03;;
13720;SDS011;6932;51.438;5.470;2024-01-06T05:38:30;5.73;;;3.97;;
13720;SDS011;6932;51.438;5.470;2024-01-06T05:40:56;5.50;;;3.60;;
13720;SDS011;6932;51.438;5.470;2024-01-06T05:43:21;5.93;;;3.83;;
13720;SDS011;6932;51.438;5.470;2024-01-06T05:45:47;5.13;;;2.93;;
13720;SDS011;6932;51.438;5.470;2024-01-06T05:48:13;4.33;;;3.13;;
13720;SDS011;6932;51.438;5.470;2024-01-06T05:50:38;4.80;;;3.00;;
13720;SDS011;6932;51.438;5.470;2024-01-06T05:53:05;4.23;;;3.00;;
13720;SDS011;6932;51.438;5.470;2024-01-06T05:55:32;4.50;;;3.10;;
13720;SDS011;6932;51.438;5.470;2024-01-06T05:57:58;4.80;;;3.23;;
13720;SDS011;6932;51.438;5.470;2024-01-06T06:00:23;4.40;;;3.20;;
13720;SDS011;6932;51.438;5.470;2024-01-06T06:02:49;4.30;;;3.00;;
13720;SDS011;6932;51.438;5.470;2024-01-06T06:05:15;3.73;;;2.83;;
13720;SDS011;6932;51.438;5.470;2024-01-06T06:07:41;4.60;;;3.20;;
13720;SDS011;6932;51.438;5.470;2024-01-06T06:10:08;4.80;;;3.27;;
13720;SDS011;6932;51.438;5.470;2024-01-06T06:12:36;4.90;;;3.17;;
13720;SDS011;6932;51.438;5.470;2024-01-06T06:15:03;4.27;;;2.97;;
13720;SDS011;6932;51.438;5.470;2024-01-06T06:17:30;4.90;;;3.20;;
13720;SDS011;6932;51.438;5.470;2024-01-06T06:19:56;4.30;;;3.10;;
13720;SDS011;6932;51.438;5.470;2024-01-06T06:22:24;5.57;;;3.30;;
13720;SDS011;6932;51.438;5.470;2024-01-06T06:24:58;4.30;;;3.00;;
13720;SDS011;6932;51.438;5.470;2024-01-06T06:27:25;5.10;;;3.20;;
13720;SDS011;6932;51.438;5.470;2024-01-06T06:29:52;5.50;;;3.17;;
13720;SDS011;6932;51.438;5.470;2024-01-06T06:32:18;5.23;;;3.60;;
13720;SDS011;6932;51.438;5.470;2024-01-06T06:34:44;5.53;;;3.70;;
13720;SDS011;6932;51.438;5.470;2024-01-06T06:37:10;5.10;;;3.43;;
13720;SDS011;6932;51.438;5.470;2024-01-06T06:39:36;4.90;;;3.30;;
13720;SDS011;6932;51.438;5.470;2024-01-06T06:42:02;5.10;;;3.43;;
13720;SDS011;6932;51.438;5.470;2024-01-06T06:44:28;5.70;;;3.60;;
13720;SDS011;6932;51.438;5.470;2024-01-06T06:46:54;5.20;;;3.60;;
13720;SDS011;6932;51.438;5.470;2024-01-06T06:49:21;5.37;;;3.50;;
13720;SDS011;6932;51.438;5.470;2024-01-06T06:51:47;5.13;;;3.60;;
13720;SDS011;6932;51.438;5.470;2024-01-06T06:54:13;5.17;;;3.43;;
13720;SDS011;6932;51.438;5.470;2024-01-06T06:56:43;5.03;;;3.40;;
13720;SDS011;6932;51.438;5.470;2024-01-06T06:59:09;6.90;;;4.33;;
13720;SDS011;6932;51.438;5.470;2024-01-06T07:01:35;5.20;;;3.67;;
13720;SDS011;6932;51.438;5.470;2024-01-06T07:04:01;7.03;;;4.00;;
13720;SDS011;6932;51.438;5.470;2024-01-06T07:06:28;7.07;;;3.93;;
13720;SDS011;6932;51.438;5.470;2024-01-06T07:08:54;5.40;;;3.53;;
13720;SDS011;6932;51.438;5.470;2024-01-06T07:11:21;8.17;;;4.10;;
13720;SDS011;6932;51.438;5.470;2024-01-06T07:13:47;5.83;;;3.90;;
13720;SDS011;6932;51.438;5.470;2024-01-06T07:16:12;6.57;;;3.80;;
13720;SDS011;6932;51.438;5.470;2024-01-06T07:18:38;5.83;;;3.70;;
13720;SDS011;6932;51.438;5.470;2024-01-06T07:21:04;5.90;;;3.90;;
13720;SDS011;6932;51.438;5.470;2024-01-06T07:23:33;5.07;;;3.67;;
13720;SDS011;6932;51.438;5.470;2024-01-06T07:26:00;6.13;;;4.10;;
13720;SDS011;6932;51.438;5.470;2024-01-06T07:28:26;7.60;;;4.30;;
13720;SDS011;6932;51.438;5.470;2024-01-06T07:30:52;7.20;;;4.30;;
13720;SDS011;6932;51.438;5.470;2024-01-06T07:33:18;7.00;;;3.93;;
13720;SDS011;6932;51.438;5.470;2024-01-06T07:35:44;6.27;;;4.00;;
13720;SDS011;6932;51.438;5.470;2024-01-06T07:38:10;7.57;;;4.47;;
13720;SDS011;6932;51.438;5.470;2024-01-06T07:40:37;7.17;;;4.40;;
13720;SDS011;6932;51.438;5.470;2024-01-06T07:43:03;8.03;;;4.77;;
13720;SDS011;6932;51.438;5.470;2024-01-06T07:45:29;7.87;;;4.83;;
13720;SDS011;6932;51.438;5.470;2024-01-06T07:47:56;8.83;;;5.20;;
13720;SDS011;6932;51.438;5.470;2024-01-06T07:50:26;8.40;;;4.80;;
13720;SDS011;6932;51.438;5.470;2024-01-06T07:52:53;7.73;;;4.83;;
13720;SDS011;6932;51.438;5.470;2024-01-06T07:55:19;8.07;;;5.00;;
13720;SDS011;6932;51.438;5.470;2024-01-06T07:57:45;8.33;;;4.90;;
13720;SDS011;6932;51.438;5.470;2024-01-06T08:00:11;8.53;;;4.93;;
13720;SDS011;6932;51.438;5.470;2024-01-06T08:02:40;7.90;;;5.00;;
13720;SDS011;6932;51.438;5.470;2024-01-06T08:05:06;8.43;;;5.20;;
13720;SDS011;6932;51.438;5.470;2024-01-06T08:07:33;8.50;;;5.20;;
13720;SDS011;6932;51.438;5.470;2024-01-06T08:09:59;8.90;;;5.40;;
13720;SDS011;6932;51.438;5.470;2024-01-06T08:12:25;9.40;;;5.33;;
13720;SDS011;6932;51.438;5.470;2024-01-06T08:14:51;10.40;;;5.27;;
13720;SDS011;6932;51.438;5.470;2024-01-06T08:17:17;10.00;;;5.70;;
13720;SDS011;6932;51.438;5.470;2024-01-06T08:19:43;8.80;;;5.10;;
13720;SDS011;6932;51.438;5.470;2024-01-06T08:22:11;8.83;;;5.30;;
13720;SDS011;6932;51.438;5.470;2024-01-06T08:24:37;9.17;;;5.80;;
13720;SDS011;6932;51.438;5.470;2024-01-06T08:27:03;9.33;;;6.07;;
13720;SDS011;6932;51.438;5.470;2024-01-06T08:29:29;9.47;;;5.90;;
13720;SDS011;6932;51.438;5.470;2024-01-06T08:31:54;8.80;;;5.87;;
13720;SDS011;6932;51.438;5.470;2024-01-06T08:34:20;9.77;;;5.80;;
13720;SDS011;6932;51.438;5.470;2024-01-06T08:36:46;9.13;;;5.73;;
13720;SDS011;6932;51.438;5.470;2024-01-06T08:39:12;9.80;;;5.77;;
13720;SDS011;6932;51.438;5.470;2024-01-06T08:41:38;9.47;;;5.90;;
13720;SDS011;6932;51.438;5.470;2024-01-06T08:44:04;9.37;;;5.43;;
13720;SDS011;6932;51.438;5.470;2024-01-06T08:46:29;8.97;;;5.43;;
13720;SDS011;6932;51.438;5.470;2024-01-06T08:48:55;9.23;;;5.90;;
13720;SDS011;6932;51.438;5.470;2024-01-06T08:51:21;9.37;;;5.67;;
13720;SDS011;6932;51.438;5.470;2024-01-06T08:53:49;9.70;;;5.70;;
13720;SDS011;6932;51.438;5.470;2024-01-06T08:56:14;9.60;;;5.60;;
13720;SDS011;6932;51.438;5.470;2024-01-06T08:58:42;9.23;;;5.37;;
13720;SDS011;6932;51.438;5.470;2024-01-06T09:01:08;10.63;;;6.10;;
13720;SDS011;6932;51.438;5.470;2024-01-06T09:03:34;10.33;;;5.80;;
13720;SDS011;6932;51.438;5.470;2024-01-06T09:06:00;9.43;;;5.70;;
13720;SDS011;6932;51.438;5.470;2024-01-06T09:08:26;9.53;;;5.63;;
13720;SDS011;6932;51.438;5.470;2024-01-06T09:10:52;9.50;;;5.90;;
13720;SDS011;6932;51.438;5.470;2024-01-06T09:13:22;9.63;;;6.00;;
13720;SDS011;6932;51.438;5.470;2024-01-06T09:15:49;9.67;;;5.60;;
13720;SDS011;6932;51.438;5.470;2024-01-06T09:18:16;9.80;;;5.90;;
13720;SDS011;6932;51.438;5.470;2024-01-06T09:20:42;9.43;;;6.07;;
13720;SDS011;6932;51.438;5.470;2024-01-06T09:23:07;9.97;;;6.10;;
13720;SDS011;6932;51.438;5.470;2024-01-06T09:25:34;9.13;;;5.63;;
13720;SDS011;6932;51.438;5.470;2024-01-06T09:28:00;9.63;;;5.60;;
13720;SDS011;6932;51.438;5.470;2024-01-06T09:30:25;10.07;;;6.00;;
13720;SDS011;6932;51.438;5.470;2024-01-06T09:32:52;9.40;;;5.53;;
13720;SDS011;6932;51.438;5.470;2024-01-06T09:35:18;8.43;;;5.30;;
13720;SDS011;6932;51.438;5.470;2024-01-06T09:37:43;9.37;;;5.77;;
13720;SDS011;6932;51.438;5.470;2024-01-06T09:40:11;9.30;;;5.40;;
13720;SDS011;6932;51.438;5.470;2024-01-06T09:42:39;9.33;;;5.70;;
13720;SDS011;6932;51.438;5.470;2024-01-06T09:45:06;11.20;;;5.77;;
13720;SDS011;6932;51.438;5.470;2024-01-06T09:47:36;8.80;;;5.60;;
13720;SDS011;6932;51.438;5.470;2024-01-06T09:50:06;9.50;;;5.70;;
13720;SDS011;6932;51.438;5.470;2024-01-06T09:52:37;11.73;;;6.17;;
13720;SDS011;6932;51.438;5.470;2024-01-06T09:55:12;9.30;;;5.77;;
13720;SDS011;6932;51.438;5.470;2024-01-06T09:57:38;10.23;;;6.10;;
13720;SDS011;6932;51.438;5.470;2024-01-06T10:00:04;10.70;;;6.17;;
13720;SDS011;6932;51.438;5.470;2024-01-06T10:02:33;10.33;;;5.67;;
13720;SDS011;6932;51.438;5.470;2024-01-06T10:04:59;9.13;;;5.60;;
13720;SDS011;6932;51.438;5.470;2024-01-06T10:07:28;8.10;;;5.30;;
13720;SDS011;6932;51.438;5.470;2024-01-06T10:09:56;8.30;;;5.60;;
13720;SDS011;6932;51.438;5.470;2024-01-06T10:12:23;9.57;;;5.90;;
13720;SDS011;6932;51.438;5.470;2024-01-06T10:14:50;8.73;;;5.50;;
13720;SDS011;6932;51.438;5.470;2024-01-06T10:17:16;9.37;;;5.73;;
13720;SDS011;6932;51.438;5.470;2024-01-06T10:19:46;8.50;;;5.40;;
13720;SDS011;6932;51.438;5.470;2024-01-06T10:22:15;7.90;;;5.30;;
13720;SDS011;6932;51.438;5.470;2024-01-06T10:24:41;9.67;;;5.77;;
13720;SDS011;6932;51.438;5.470;2024-01-06T10:27:07;9.60;;;5.37;;
13720;SDS011;6932;51.438;5.470;2024-01-06T10:29:34;8.17;;;5.40;;
13720;SDS011;6932;51.438;5.470;2024-01-06T10:32:00;8.33;;;5.20;;
13720;SDS011;6932;51.438;5.470;2024-01-06T10:34:26;8.73;;;5.50;;
13720;SDS011;6932;51.438;5.470;2024-01-06T10:36:54;9.07;;;5.53;;
13720;SDS011;6932;51.438;5.470;2024-01-06T10:39:20;8.60;;;5.20;;
13720;SDS011;6932;51.438;5.470;2024-01-06T10:41:49;8.70;;;5.10;;
13720;SDS011;6932;51.438;5.470;2024-01-06T10:44:17;8.87;;;5.33;;
13720;SDS011;6932;51.438;5.470;2024-01-06T10:46:45;8.43;;;5.17;;
13720;SDS011;6932;51.438;5.470;2024-01-06T10:49:14;9.00;;;5.70;;
13720;SDS011;6932;51.438;5.470;2024-01-06T10:51:42;9.07;;;5.47;;
13720;SDS011;6932;51.438;5.470;2024-01-06T10:54:11;9.03;;;5.70;;
13720;SDS011;6932;51.438;5.470;2024-01-06T10:56:39;8.87;;;5.70;;
13720;SDS011;6932;51.438;5.470;2024-01-06T10:59:05;9.03;;;5.83;;
13720;SDS011;6932;51.438;5.470;2024-01-06T11:01:32;10.53;;;5.90;;
13720;SDS011;6932;51.438;5.470;2024-01-06T11:04:00;8.93;;;5.50;;
13720;SDS011;6932;51.438;5.470;2024-01-06T11:06:28;7.97;;;5.30;;
13720;SDS011;6932;51.438;5.470;2024-01-06T11:08:58;8.77;;;5.27;;
13720;SDS011;6932;51.438;5.470;2024-01-06T11:11:34;8.27;;;5.43;;
13720;SDS011;6932;51.438;5.470;2024-01-06T11:17:03;8.77;;;5.70;;
13720;SDS011;6932;51.438;5.470;2024-01-06T11:24:57;8.27;;;5.20;;
13720;SDS011;6932;51.438;5.470;2024-01-06T11:27:32;9.23;;;5.50;;
13720;SDS011;6932;51.438;5.470;2024-01-06T11:30:00;9.03;;;5.60;;
13720;SDS011;6932;51.438;5.470;2024-01-06T11:32:31;9.27;;;5.60;;
13720;SDS011;6932;51.438;5.470;2024-01-06T11:35:11;9.20;;;5.37;;
13720;SDS011;6932;51.438;5.470;2024-01-06T11:40:09;9.23;;;5.33;;
13720;SDS011;6932;51.438;5.470;2024-01-06T11:43:07;9.17;;;5.50;;
13720;SDS011;6932;51.438;5.470;2024-01-06T11:45:37;8.67;;;5.20;;
13720;SDS011;6932;51.438;5.470;2024-01-06T11:48:10;9.10;;;5.30;;
13720;SDS011;6932;51.438;5.470;2024-01-06T11:50:39;8.40;;;5.43;;
13720;SDS011;6932;51.438;5.470;2024-01-06T11:53:07;9.57;;;5.07;;
13720;SDS011;6932;51.438;5.470;2024-01-06T11:55:35;8.37;;;5.23;;
13720;SDS011;6932;51.438;5.470;2024-01-06T11:58:03;10.27;;;5.43;;
13720;SDS011;6932;51.438;5.470;2024-01-06T12:00:31;9.13;;;5.50;;
13720;SDS011;6932;51.438;5.470;2024-01-06T12:02:59;8.23;;;5.03;;
13720;SDS011;6932;51.438;5.470;2024-01-06T12:05:26;7.80;;;4.53;;
13720;SDS011;6932;51.438;5.470;2024-01-06T12:07:56;7.50;;;4.60;;
13720;SDS011;6932;51.438;5.470;2024-01-06T12:10:30;9.20;;;5.00;;
13720;SDS011;6932;51.438;5.470;2024-01-06T12:15:27;7.37;;;4.70;;
13720;SDS011;6932;51.438;5.470;2024-01-06T12:17:54;7.50;;;4.70;;
13720;SDS011;6932;51.438;5.470;2024-01-06T12:20:21;9.00;;;4.80;;
13720;SDS011;6932;51.438;5.470;2024-01-06T12:22:51;8.23;;;4.70;;
13720;SDS011;6932;51.438;5.470;2024-01-06T12:25:18;8.03;;;4.63;;
13720;SDS011;6932;51.438;5.470;2024-01-06T12:27:47;8.63;;;4.70;;
13720;SDS011;6932;51.438;5.470;2024-01-06T12:30:14;8.47;;;4.93;;
13720;SDS011;6932;51.438;5.470;2024-01-06T12:32:44;7.53;;;4.80;;
13720;SDS011;6932;51.438;5.470;2024-01-06T12:35:14;8.47;;;4.97;;
13720;SDS011;6932;51.438;5.470;2024-01-06T12:37:42;6.73;;;4.47;;
13720;SDS011;6932;51.438;5.470;2024-01-06T12:40:10;8.17;;;4.80;;
13720;SDS011;6932;51.438;5.470;2024-01-06T12:42:38;7.90;;;4.47;;
13720;SDS011;6932;51.438;5.470;2024-01-06T12:45:04;9.00;;;5.00;;
13720;SDS011;6932;51.438;5.470;2024-01-06T12:47:31;8.57;;;5.10;;
13720;SDS011;6932;51.438;5.470;2024-01-06T12:49:58;8.90;;;5.10;;
13720;SDS011;6932;51.438;5.470;2024-01-06T12:52:23;9.10;;;5.17;;
13720;SDS011;6932;51.438;5.470;2024-01-06T12:54:49;8.90;;;5.37;;
13720;SDS011;6932;51.438;5.470;2024-01-06T12:57:15;9.13;;;5.70;;
13720;SDS011;6932;51.438;5.470;2024-01-06T12:59:41;9.80;;;5.50;;
13720;SDS011;6932;51.438;5.470;2024-01-06T13:02:08;9.27;;;5.53;;
13720;SDS011;6932;51.438;5.470;2024-01-06T13:04:33;8.77;;;5.70;;
13720;SDS011;6932;51.438;5.470;2024-01-06T13:06:59;10.47;;;5.50;;
13720;SDS011;6932;51.438;5.470;2024-01-06T13:09:26;8.93;;;5.70;;
13720;SDS011;6932;51.438;5.470;2024-01-06T13:11:53;9.87;;;5.90;;
13720;SDS011;6932;51.438;5.470;2024-01-06T13:14:20;11.00;;;6.30;;
13720;SDS011;6932;51.438;5.470;2024-01-06T13:16:46;8.77;;;5.73;;
13720;SDS011;6932;51.438;5.470;2024-01-06T13:19:12;10.67;;;6.00;;
13720;SDS011;6932;51.438;5.470;2024-01-06T13:21:38;9.30;;;6.00;;
13720;SDS011;6932;51.438;5.470;2024-01-06T13:24:05;9.00;;;5.60;;
13720;SDS011;6932;51.438;5.470;2024-01-06T13:26:32;9.27;;;5.90;;
13720;SDS011;6932;51.438;5.470;2024-01-06T13:28:57;8.47;;;5.07;;
13720;SDS011;6932;51.438;5.470;2024-01-06T13:31:24;7.40;;;5.07;;
13720;SDS011;6932;51.438;5.470;2024-01-06T13:33:50;7.23;;;4.60;;
13720;SDS011;6932;51.438;5.470;2024-01-06T13:36:21;6.53;;;4.30;;
13720;SDS011;6932;51.438;5.470;2024-01-06T13:38:47;7.50;;;4.10;;
13720;SDS011;6932;51.438;5.470;2024-01-06T13:41:13;6.00;;;4.10;;
13720;SDS011;6932;51.438;5.470;2024-01-06T13:43:40;6.73;;;4.17;;
13720;SDS011;6932;51.438;5.470;2024-01-06T13:46:05;6.77;;;4.37;;
13720;SDS011;6932;51.438;5.470;2024-01-06T13:48:31;7.40;;;4.17;;
13720;SDS011;6932;51.438;5.470;2024-01-06T13:50:57;6.27;;;4.00;;
13720;SDS011;6932;51.438;5.470;2024-01-06T13:53:23;6.70;;;4.23;;
13720;SDS011;6932;51.438;5.470;2024-01-06T13:55:49;6.63;;;4.23;;
13720;SDS011;6932;51.438;5.470;2024-01-06T13:58:15;6.07;;;3.97;;
13720;SDS011;6932;51.438;5.470;2024-01-06T14:00:42;7.10;;;4.10;;
13720;SDS011;6932;51.438;5.470;2024-01-06T14:03:09;6.00;;;4.07;;
13720;SDS011;6932;51.438;5.470;2024-01-06T14:05:35;6.47;;;4.13;;
13720;SDS011;6932;51.438;5.470;2024-01-06T14:08:01;6.57;;;4.00;;
13720;SDS011;6932;51.438;5.470;2024-01-06T14:10:27;6.93;;;4.07;;
13720;SDS011;6932;51.438;5.470;2024-01-06T14:12:53;6.43;;;3.97;;
13720;SDS011;6932;51.438;5.470;2024-01-06T14:15:19;7.63;;;3.87;;
13720;SDS011;6932;51.438;5.470;2024-01-06T14:17:45;5.77;;;3.80;;
13720;SDS011;6932;51.438;5.470;2024-01-06T14:20:14;8.83;;;4.30;;
13720;SDS011;6932;51.438;5.470;2024-01-06T14:22:43;6.40;;;4.13;;
13720;SDS011;6932;51.438;5.470;2024-01-06T14:25:12;6.20;;;4.60;;
13720;SDS011;6932;51.438;5.470;2024-01-06T14:27:38;6.20;;;4.43;;
13720;SDS011;6932;51.438;5.470;2024-01-06T14:30:04;7.40;;;4.20;;
13720;SDS011;6932;51.438;5.470;2024-01-06T14:32:34;8.20;;;4.30;;
13720;SDS011;6932;51.438;5.470;2024-01-06T14:35:01;6.70;;;4.30;;
13720;SDS011;6932;51.438;5.470;2024-01-06T14:37:31;7.73;;;4.70;;
13720;SDS011;6932;51.438;5.470;2024-01-06T14:39:58;11.03;;;5.03;;
13720;SDS011;6932;51.438;5.470;2024-01-06T14:42:24;6.87;;;4.47;;
13720;SDS011;6932;51.438;5.470;2024-01-06T14:44:49;7.47;;;4.70;;
13720;SDS011;6932;51.438;5.470;2024-01-06T14:47:15;8.27;;;4.90;;
13720;SDS011;6932;51.438;5.470;2024-01-06T14:49:41;8.60;;;5.10;;
13720;SDS011;6932;51.438;5.470;2024-01-06T14:52:06;7.03;;;5.00;;
13720;SDS011;6932;51.438;5.470;2024-01-06T14:54:47;8.70;;;5.20;;
13720;SDS011;6932;51.438;5.470;2024-01-06T14:57:26;9.23;;;5.40;;
13720;SDS011;6932;51.438;5.470;2024-01-06T15:00:21;7.53;;;4.77;;
13720;SDS011;6932;51.438;5.470;2024-01-06T15:02:52;7.93;;;5.23;;
13720;SDS011;6932;51.438;5.470;2024-01-06T15:05:42;7.90;;;5.10;;
13720;SDS011;6932;51.438;5.470;2024-01-06T15:08:20;9.93;;;5.50;;
13720;SDS011;6932;51.438;5.470;2024-01-06T15:11:14;8.13;;;5.23;;